This is the latest recevied weather packets stored in our database for station/object YO3IEZ-WX. If no packets are shown the sender has not sent any weather packets the latest 10 day(s).
| Time | Temp. | Humidity | Pressure | Rain* | Wind** | Luminosity | Snow |
|---|---|---|---|---|---|---|---|
| 1777751148 | 8.33° C | 78% | 1012.5 hPa | 0 mm | - | 0 W/m² | - |
| 1777743953 | 8.89° C | 76% | 1011.5 hPa | 0 mm | - | 0 W/m² | - |
| 1777739459 | 11.67° C | 54% | 1010.9 hPa | 0 mm | - | 32 W/m² | - |
| 1777737650 | 11.67° C | 57% | 1011 hPa | 0 mm | - | 47 W/m² | - |
| 1777736755 | 11.11° C | 68% | 1010.9 hPa | 0 mm | - | 69 W/m² | - |
| 1777731351 | 11.11° C | 68% | 1011.5 hPa | 0 mm | - | 232 W/m² | - |
| 1777727757 | 12.22° C | 59% | 1011.8 hPa | 0 mm | - | 654 W/m² | - |
| 1777724152 | 10.56° C | 64% | 1012.1 hPa | 0 mm | - | 951 W/m² | - |
| 1777723261 | 10° C | 65% | 1012.1 hPa | 0 mm | - | 809 W/m² | - |
| 1777721450 | 10.56° C | 63% | 1012.7 hPa | 0 mm | - | 519 W/m² | - |
| 1777718746 | 11.11° C | 65% | 1012.4 hPa | 0 mm | - | 102 W/m² | - |
| 1777717845 | 12.22° C | 58% | 1012.1 hPa | 0 mm | - | 56 W/m² | - |
| 1777716948 | 12.22° C | 57% | 1012.1 hPa | 0 mm | - | 230 W/m² | - |
| 1777716048 | 12.22° C | 57% | 1012.1 hPa | 0 mm | - | 243 W/m² | - |
| 1777711550 | 12.22° C | 58% | 1012.5 hPa | 0 mm | - | 441 W/m² | - |
| 1777710650 | 12.78° C | 56% | 1012.6 hPa | 0 mm | - | 446 W/m² | - |
| 1777709751 | 12.78° C | 56% | 1012.5 hPa | 0 mm | - | 601 W/m² | - |
| 1777707946 | 11.67° C | 61% | 1012.8 hPa | 0 mm | - | 394 W/m² | - |
| 1777563947 | 5° C | 90% | 1014.1 hPa | 1.27 mm | - | 14 W/m² | - |
| 1777560357 | 5° C | 90% | 1014 hPa | 1.02 mm | - | 39 W/m² | - |
| 1777559451 | 5° C | 90% | 1013.8 hPa | 1.02 mm | - | 46 W/m² | - |
| 1777554947 | 5° C | 91% | 1013.7 hPa | 1.78 mm | - | 86 W/m² | - |
| 1777546845 | 5° C | 89% | 1013.5 hPa | 2.03 mm | - | 77 W/m² | - |
| 1777539649 | 5° C | 89% | 1013 hPa | 1.78 mm | - | 149 W/m² | - |
| 1777538750 | 5° C | 89% | 1013.1 hPa | 1.27 mm | - | 156 W/m² | - |
* Rain latest hour (hover to see other rain measurements)
** Current wind speed in m/s (hover to see current wind gust speed)